Have a Safe July 4th! 

Flight Track Log - Related Links

Times and Time Zones

All times are in EDT time to prevent confusion due to time zone crossing. See the RPA4907 flight status page for this flight to view local times or setup timezone preferences in your user account.

Time Position Orientation Groundspeed Altitude Reporting Facility
EDT Latitude Longitude Course Direction KTS MPH feet Rate Location/Type
Tue 01:13:00 PM 40.6333 -74.2000 246° West 213 245 2,000  Level New York TRACON
Tue 01:14:00 PM 40.6333 -74.2667 270° West 209 241 4,500 2,087 Climbing New York TRACON
Tue 01:16:04 PM 40.6158 -74.4153 261° West 204 235 8,400 1,719 Climbing New York Center
Tue 01:17:05 PM 40.6044 -74.5131 261° West 237 273 9,800 1,475 Climbing New York Center
Tue 01:18:00 PM 40.4896 -74.7480 246° West  Level FlightAware Approximate
Tue 01:18:06 PM 40.5744 -74.5989 245° Southwest 259 298 11,400  Level New York Center
Tue 01:19:03 PM 40.5406 -74.6844 242° Southwest 265 305 12,600 1,220 Climbing New York Center
Tue 01:20:04 PM 40.5022 -74.7722 240° Southwest 270 311 13,800 689 Climbing New York Center
Tue 01:21:05 PM 40.4703 -74.8469 241° Southwest 284 327 14,000 99 Climbing New York Center
Tue 01:22:05 PM 40.4203 -74.9692 242° Southwest 305 351 14,000  Level New York Center
Tue 01:23:06 PM 40.3586 -75.0581 228° Southwest 328 377 14,000  Level New York Center
Tue 01:24:03 PM 40.2950 -75.1467 227° Southwest 340 391 14,000  Level New York Center
Tue 01:25:03 PM 40.2378 -75.2275 227° Southwest 340 391 14,000  Level New York Center
Tue 01:26:04 PM 40.1719 -75.3156 226° Southwest 340 391 14,000 -49 Level New York Center
Tue 01:27:05 PM 40.1056 -75.4117 228° Southwest 330 380 13,900 -50 Descending New York Center
Tue 01:28:03 PM 40.0417 -75.4994 226° Southwest 330 380 13,900 50 Level New York Center
Tue 01:29:04 PM 39.9797 -75.5847 227° Southwest 330 380 14,000  Climbing New York Center
Tue 01:30:03 PM 39.9178 -75.6725 227° Southwest 330 380 13,900 -50 Descending New York Center
Tue 01:31:03 PM 39.8658 -75.7689 235° Southwest 336 387 13,900 -469 Level New York Center
Tue 01:33:02 PM 39.7667 -75.9667 237° Southwest 325 374 12,500 -800 Descending Potomac TRACON
Tue 01:34:03 PM 39.7167 -76.0667 237° Southwest 322 371 11,500 -890 Descending Potomac TRACON
Tue 01:36:04 PM 39.6000 -76.2333 228° Southwest 297 342 9,800 -1,061 Descending Potomac TRACON
Tue 01:37:04 PM 39.5333 -76.2833 210° Southwest 264 304 8,300 -1,226 Descending Potomac TRACON
Tue 01:39:00 PM 39.4280 -76.4220 218° Southwest  Level FlightAware Approximate
Tue 01:39:59 PM 39.3833 -76.4500 218° Southwest 246 283 5,000  Level Potomac TRACON
Tue 01:41:00 PM 39.3287 -76.5087 207° Southwest  Level FlightAware Approximate
Tue 01:43:05 PM 39.1667 -76.4667 270° West 253 291 2,900  Level Potomac TRACON
Tue 01:48:00 PM 39.1667 -76.6667 270° West  Level FlightAware Approximate

Login

Don't have an account? Register now (free) for customized features, flight alerts, and more!